Terminal Aerodrome Forecast
Issued by NWS

Home | Current Version | Previous Version | Text Only | Print | Product List | Glossary On
Versions: 1 2 3 4 5 6 7 8 9 10 11 12 13 14 15 16 17 18 19 20 21
000
FTUS45 KBOU 041138
TAFAPA
TAF
KAPA 041138Z 0412/0512 17006KT P6SM FEW250
     FM041700 VRB04KT P6SM FEW220
     FM042100 35007KT P6SM FEW120 SCT200
     FM050100 VRB04KT P6SM SCT120 BKN200
     FM050300 18009KT P6SM SCT120 BKN200=

USA.gov is the U.S. government's official web portal to all federal, state and local government web resources and services.